createdAt,value
2023-01-22T00:01:09.298Z,4.63
2023-01-22T00:03:40.467Z,4.07
2023-01-22T00:06:08.598Z,4.22
2023-01-22T00:08:36.272Z,4.53
2023-01-22T00:11:04.460Z,3.35
2023-01-22T00:13:31.829Z,3.75
2023-01-22T00:16:00.186Z,4.50
2023-01-22T00:18:27.732Z,4.45
2023-01-22T00:20:55.990Z,4.38
2023-01-22T00:23:23.581Z,4.07
2023-01-22T00:25:51.134Z,3.70
2023-01-22T00:28:18.495Z,4.20
2023-01-22T00:30:45.740Z,4.28
2023-01-22T00:33:13.095Z,3.67
2023-01-22T00:35:40.464Z,3.60
2023-01-22T00:38:07.863Z,4.18
2023-01-22T00:40:35.572Z,3.75
2023-01-22T00:43:02.925Z,3.65
2023-01-22T00:45:30.897Z,3.67
2023-01-22T00:47:58.501Z,3.90
2023-01-22T00:50:25.915Z,3.63
2023-01-22T00:52:53.378Z,3.80
2023-01-22T00:55:20.801Z,3.80
2023-01-22T00:57:48.038Z,4.57
2023-01-22T01:00:18.634Z,4.05
2023-01-22T01:03:04.462Z,3.70
2023-01-22T01:05:32.438Z,3.67
2023-01-22T01:08:03.419Z,4.00
2023-01-22T01:10:30.909Z,4.63
2023-01-22T01:12:58.255Z,4.47
2023-01-22T01:15:26.141Z,4.05
2023-01-22T01:17:53.503Z,4.07
2023-01-22T01:20:20.930Z,4.60
2023-01-22T01:22:49.657Z,4.65
2023-01-22T01:25:16.979Z,4.55
2023-01-22T01:27:45.425Z,4.95
2023-01-22T01:30:16.260Z,5.05
2023-01-22T01:32:44.010Z,4.65
2023-01-22T01:35:11.385Z,4.45
2023-01-22T01:37:40.498Z,4.47
2023-01-22T01:40:08.974Z,4.65
2023-01-22T01:42:38.370Z,5.78
2023-01-22T01:45:25.068Z,4.72
2023-01-22T01:48:15.195Z,4.65
2023-01-22T01:50:44.581Z,3.97
2023-01-22T01:53:11.902Z,4.20
2023-01-22T01:55:41.297Z,4.35
2023-01-22T01:58:13.223Z,4.72
2023-01-22T02:00:42.574Z,3.97
2023-01-22T02:03:10.467Z,3.83
2023-01-22T02:05:39.521Z,5.03
2023-01-22T02:08:08.873Z,4.00
2023-01-22T02:10:37.316Z,4.82
2023-01-22T02:13:09.269Z,5.25
2023-01-22T02:15:37.284Z,4.10
2023-01-22T02:18:04.726Z,4.90
2023-01-22T02:20:39.682Z,4.88
2023-01-22T02:23:07.523Z,4.40
2023-01-22T02:25:34.821Z,4.35
2023-01-22T02:28:02.242Z,4.82
2023-01-22T02:30:29.611Z,4.90
2023-01-22T02:32:57.040Z,5.90
2023-01-22T02:35:25.840Z,5.50
2023-01-22T02:37:53.258Z,4.78
2023-01-22T02:40:20.749Z,5.13
2023-01-22T02:42:48.057Z,5.95
2023-01-22T02:45:15.267Z,5.78
2023-01-22T02:47:42.826Z,4.97
2023-01-22T02:50:10.776Z,6.57
2023-01-22T02:52:38.137Z,6.00
2023-01-22T02:55:05.716Z,5.78
2023-01-22T02:57:32.924Z,5.90
2023-01-22T03:00:00.986Z,5.97
2023-01-22T03:02:28.821Z,5.22
2023-01-22T03:05:03.526Z,5.60
2023-01-22T03:07:42.207Z,5.65
2023-01-22T03:10:18.494Z,6.25
2023-01-22T03:13:05.024Z,6.38
2023-01-22T03:15:51.560Z,5.35
2023-01-22T03:18:37.547Z,5.70
2023-01-22T03:21:16.993Z,6.18
2023-01-22T03:23:45.929Z,6.57
2023-01-22T03:26:16.940Z,6.72
2023-01-22T03:28:46.147Z,6.05
2023-01-22T03:31:14.237Z,5.90
2023-01-22T03:33:42.112Z,4.70
2023-01-22T03:36:10.653Z,5.18
2023-01-22T03:38:38.077Z,5.50
2023-01-22T03:41:06.217Z,5.30
2023-01-22T03:43:34.880Z,5.68
2023-01-22T03:46:03.015Z,5.70
2023-01-22T03:48:30.616Z,6.32
2023-01-22T03:50:57.981Z,6.13
2023-01-22T03:53:25.309Z,6.57
2023-01-22T03:55:59.623Z,5.70
2023-01-22T03:58:27.322Z,6.43
2023-01-22T04:00:57.884Z,6.43
2023-01-22T04:03:26.385Z,6.28
2023-01-22T04:05:54.001Z,6.00
2023-01-22T04:08:21.669Z,5.85
2023-01-22T04:10:49.195Z,5.90
2023-01-22T04:13:16.566Z,5.88
2023-01-22T04:15:45.360Z,5.38
2023-01-22T04:18:13.255Z,5.88
2023-01-22T04:20:40.668Z,5.30
2023-01-22T04:23:08.360Z,6.00
2023-01-22T04:25:36.400Z,6.03
2023-01-22T04:28:03.816Z,6.50
2023-01-22T04:30:31.440Z,7.35
2023-01-22T04:32:58.784Z,7.13
2023-01-22T04:35:26.121Z,6.63
2023-01-22T04:37:56.116Z,7.13
2023-01-22T04:40:23.566Z,7.40
2023-01-22T04:42:51.284Z,8.40
2023-01-22T04:45:18.787Z,9.02
2023-01-22T04:47:47.359Z,7.93
2023-01-22T04:50:25.615Z,6.97
2023-01-22T04:52:54.303Z,7.57
2023-01-22T04:55:22.193Z,6.00
2023-01-22T04:57:49.675Z,6.72
2023-01-22T05:00:17.545Z,7.30
2023-01-22T05:02:45.134Z,7.22
2023-01-22T05:05:15.914Z,6.85
2023-01-22T05:07:43.524Z,5.95
2023-01-22T05:10:11.137Z,5.80
2023-01-22T05:12:38.425Z,6.40
2023-01-22T05:15:15.098Z,6.43
2023-01-22T05:17:50.156Z,6.15
2023-01-22T05:20:18.169Z,7.15
2023-01-22T05:22:45.790Z,6.15
2023-01-22T05:25:13.743Z,6.32
2023-01-22T05:27:41.114Z,6.25
2023-01-22T05:32:49.861Z,6.28
2023-01-22T05:35:17.291Z,6.07
2023-01-22T05:37:45.156Z,5.97
2023-01-22T05:40:12.818Z,5.10
2023-01-22T05:42:40.193Z,5.43
2023-01-22T05:45:07.723Z,5.82
2023-01-22T05:47:35.089Z,6.22
2023-01-22T05:50:02.456Z,5.63
2023-01-22T05:52:29.741Z,5.45
2023-01-22T05:54:59.117Z,6.50
2023-01-22T05:57:27.976Z,5.45
2023-01-22T05:59:55.400Z,6.97
2023-01-22T06:02:22.953Z,5.40
2023-01-22T06:04:50.254Z,5.60
2023-01-22T06:07:17.587Z,5.70
2023-01-22T06:09:44.871Z,5.60
2023-01-22T06:12:12.538Z,5.85
2023-01-22T06:14:39.862Z,6.60
2023-01-22T06:17:07.216Z,6.43
2023-01-22T06:19:34.549Z,6.20
2023-01-22T06:22:01.983Z,5.80
2023-01-22T06:24:29.147Z,6.35
2023-01-22T06:26:56.545Z,5.82
2023-01-22T06:29:23.836Z,5.82
2023-01-22T06:31:51.028Z,5.90
2023-01-22T06:34:18.427Z,6.60
2023-01-22T06:36:45.581Z,6.90
2023-01-22T06:39:12.924Z,6.78
2023-01-22T06:41:42.276Z,6.53
2023-01-22T06:44:09.744Z,6.38
2023-01-22T06:46:37.166Z,7.32
2023-01-22T06:49:04.922Z,6.30
2023-01-22T06:51:32.602Z,7.32
2023-01-22T06:54:00.191Z,6.70
2023-01-22T06:56:28.225Z,6.70
2023-01-22T06:58:55.650Z,6.22
2023-01-22T07:01:23.169Z,6.10
2023-01-22T07:03:50.563Z,6.80
2023-01-22T07:06:19.077Z,6.10
2023-01-22T07:08:46.397Z,6.97
2023-01-22T07:11:15.427Z,9.02
2023-01-22T07:13:43.336Z,31.02
2023-01-22T07:16:11.150Z,14.65
2023-01-22T07:18:38.384Z,7.78
2023-01-22T07:21:06.529Z,11.23
2023-01-22T07:23:33.969Z,11.07
2023-01-22T07:26:01.188Z,10.00
2023-01-22T07:28:28.588Z,9.13
2023-01-22T07:30:57.119Z,7.78
2023-01-22T07:33:24.622Z,7.53
2023-01-22T07:35:56.709Z,7.32
2023-01-22T07:38:24.724Z,11.73
2023-01-22T07:40:52.063Z,6.60
2023-01-22T07:43:19.183Z,13.10
2023-01-22T07:45:46.513Z,25.35
2023-01-22T07:48:14.130Z,10.30
2023-01-22T07:50:41.332Z,6.30
2023-01-22T07:53:11.753Z,6.70
2023-01-22T07:55:39.384Z,9.52
2023-01-22T07:58:07.983Z,5.30
2023-01-22T08:00:35.953Z,8.45
2023-01-22T08:03:07.038Z,5.78
2023-01-22T08:05:34.430Z,5.90
2023-01-22T08:08:01.806Z,5.65
2023-01-22T08:10:29.082Z,6.85
2023-01-22T08:12:56.398Z,8.35
2023-01-22T08:15:23.826Z,8.52
2023-01-22T08:17:51.388Z,6.13
2023-01-22T08:20:19.309Z,6.85
2023-01-22T08:22:47.138Z,6.78
2023-01-22T08:25:14.674Z,6.43
2023-01-22T08:27:41.921Z,6.25
2023-01-22T08:30:11.432Z,9.35
2023-01-22T08:32:41.495Z,30.55
2023-01-22T08:35:09.264Z,12.80
2023-01-22T08:37:36.745Z,13.75
2023-01-22T08:40:04.857Z,62.08
2023-01-22T08:42:35.153Z,14.88
2023-01-22T08:45:02.478Z,6.53
2023-01-22T08:47:29.612Z,11.00
2023-01-22T08:49:57.521Z,7.65
2023-01-22T08:52:24.795Z,7.03
2023-01-22T08:54:52.055Z,15.68
2023-01-22T08:57:19.214Z,11.98
2023-01-22T08:59:59.730Z,9.75
2023-01-22T09:02:28.244Z,8.20
2023-01-22T09:04:55.651Z,8.00
2023-01-22T09:07:23.018Z,6.82
2023-01-22T09:09:50.435Z,8.93
2023-01-22T09:12:17.849Z,6.95
2023-01-22T09:14:45.208Z,7.32
2023-01-22T09:17:12.335Z,11.27
2023-01-22T09:19:39.672Z,7.20
2023-01-22T09:22:07.592Z,8.85
2023-01-22T09:24:34.927Z,5.80
2023-01-22T09:27:02.393Z,8.45
2023-01-22T09:29:29.762Z,8.13
2023-01-22T09:31:57.300Z,7.28
2023-01-22T09:34:24.477Z,9.25
2023-01-22T09:36:51.797Z,9.60
2023-01-22T09:39:19.104Z,7.38
2023-01-22T09:41:56.507Z,6.18
2023-01-22T09:44:28.849Z,7.05
2023-01-22T09:47:00.771Z,6.90
2023-01-22T09:49:39.073Z,7.60
2023-01-22T09:52:06.375Z,25.27
2023-01-22T09:54:33.809Z,9.73
2023-01-22T09:57:03.611Z,13.55
2023-01-22T09:59:38.651Z,9.30
2023-01-22T10:02:21.420Z,11.65
2023-01-22T10:04:50.913Z,9.13
2023-01-22T10:07:20.432Z,9.00
2023-01-22T10:10:03.201Z,12.07
2023-01-22T10:12:30.603Z,20.97
2023-01-22T10:14:57.966Z,22.35
2023-01-22T10:17:31.486Z,7.78
2023-01-22T10:20:02.314Z,18.25
2023-01-22T10:22:29.511Z,8.55
2023-01-22T10:24:58.454Z,6.43
2023-01-22T10:27:33.984Z,14.05
2023-01-22T10:30:09.356Z,9.68
2023-01-22T10:32:36.564Z,7.25
2023-01-22T10:35:12.893Z,12.40
2023-01-22T10:37:51.024Z,9.10
2023-01-22T10:40:21.379Z,14.88
2023-01-22T10:42:49.508Z,13.70
2023-01-22T10:45:17.106Z,13.55
2023-01-22T10:47:44.277Z,7.32
2023-01-22T10:50:14.573Z,9.05
2023-01-22T10:52:54.870Z,8.70
2023-01-22T10:55:23.552Z,9.20
2023-01-22T10:57:55.159Z,15.23
2023-01-22T11:00:52.324Z,13.23
2023-01-22T11:03:32.336Z,12.40
2023-01-22T11:06:02.288Z,10.07
2023-01-22T11:08:31.021Z,13.18
2023-01-22T11:11:00.387Z,11.55
2023-01-22T11:13:46.292Z,8.32
2023-01-22T11:16:13.546Z,9.75
2023-01-22T11:18:43.279Z,6.47
2023-01-22T11:21:17.575Z,9.60
2023-01-22T11:23:56.804Z,6.78
2023-01-22T11:26:36.253Z,7.45
2023-01-22T11:29:09.399Z,14.50
2023-01-22T11:31:54.997Z,7.60
2023-01-22T11:34:28.001Z,7.32
2023-01-22T11:36:55.100Z,7.13
2023-01-22T11:39:40.829Z,7.97
2023-01-22T11:42:23.040Z,6.93
2023-01-22T11:45:01.007Z,6.85
2023-01-22T11:47:55.891Z,23.65
2023-01-22T11:50:26.152Z,6.65
2023-01-22T11:53:03.936Z,6.55
2023-01-22T11:55:31.049Z,7.07
2023-01-22T11:58:07.313Z,8.95
2023-01-22T12:00:42.574Z,8.45
2023-01-22T12:03:12.458Z,8.35
2023-01-22T12:05:46.828Z,10.68
2023-01-22T12:08:37.357Z,10.70
2023-01-22T12:11:14.426Z,9.82
2023-01-22T12:14:00.153Z,20.73
2023-01-22T12:16:35.982Z,23.42
2023-01-22T12:19:03.128Z,17.58
2023-01-22T12:21:48.930Z,20.55
2023-01-22T12:24:21.132Z,14.10
2023-01-22T12:26:52.204Z,10.82
2023-01-22T12:29:22.566Z,9.68
2023-01-22T12:31:49.724Z,14.00
2023-01-22T12:34:23.147Z,9.65
2023-01-22T12:39:26.362Z,11.27
2023-01-22T12:42:01.087Z,8.55
2023-01-22T12:44:31.706Z,8.15
2023-01-22T12:47:09.297Z,12.05
2023-01-22T12:49:45.864Z,15.65
2023-01-22T12:52:31.989Z,19.75
2023-01-22T12:54:59.774Z,11.57
2023-01-22T12:57:28.673Z,12.40
2023-01-22T12:59:57.673Z,9.98
2023-01-22T13:02:35.489Z,70.63
2023-01-22T13:05:13.624Z,15.75
2023-01-22T13:07:41.240Z,24.65
2023-01-22T13:10:21.284Z,25.20
2023-01-22T13:12:50.611Z,20.65
2023-01-22T13:15:19.133Z,19.95
2023-01-22T13:17:58.498Z,10.63
2023-01-22T13:20:35.757Z,12.32
2023-01-22T13:23:03.704Z,12.77
2023-01-22T13:25:32.226Z,12.95
2023-01-22T13:27:59.962Z,12.95
2023-01-22T13:30:28.366Z,14.27
2023-01-22T13:33:15.241Z,16.52
2023-01-22T13:35:43.561Z,19.40
2023-01-22T13:38:21.320Z,14.32
2023-01-22T13:40:56.181Z,16.08
2023-01-22T13:43:24.189Z,18.10
2023-01-22T13:45:52.766Z,16.83
2023-01-22T13:48:21.908Z,20.38
2023-01-22T13:50:54.928Z,18.15
2023-01-22T13:53:26.171Z,16.98
2023-01-22T13:55:53.713Z,20.33
2023-01-22T13:58:38.906Z,21.02
2023-01-22T14:01:10.954Z,15.10
2023-01-22T14:03:38.702Z,15.35
2023-01-22T14:06:07.391Z,18.35
2023-01-22T14:08:45.304Z,17.48
2023-01-22T14:11:12.416Z,16.08
2023-01-22T14:13:41.042Z,18.45
2023-01-22T14:16:08.803Z,16.25
2023-01-22T14:18:36.413Z,18.65
2023-01-22T14:21:03.898Z,22.50
2023-01-22T14:23:31.142Z,20.25
2023-01-22T14:25:58.946Z,20.48
2023-01-22T14:28:26.136Z,21.52
2023-01-22T14:30:53.432Z,21.42
2023-01-22T14:33:24.213Z,19.10
2023-01-22T14:35:52.175Z,20.80
2023-01-22T14:38:19.675Z,23.83
2023-01-22T14:40:46.892Z,20.38
2023-01-22T14:43:14.140Z,21.90
2023-01-22T14:45:41.854Z,20.25
2023-01-22T14:48:12.253Z,22.60
2023-01-22T14:50:40.006Z,22.20
2023-01-22T14:53:07.684Z,22.52
2023-01-22T14:55:34.862Z,23.75
2023-01-22T14:58:02.477Z,24.88
2023-01-22T15:00:32.309Z,25.42
2023-01-22T15:03:00.292Z,20.38
2023-01-22T15:05:27.948Z,21.50
2023-01-22T15:07:55.710Z,24.17
2023-01-22T15:10:23.434Z,23.70
2023-01-22T15:12:51.642Z,26.33
2023-01-22T15:15:23.189Z,21.35
2023-01-22T15:17:51.662Z,23.13
2023-01-22T15:20:19.890Z,24.50
2023-01-22T15:22:47.517Z,25.35
2023-01-22T15:25:14.638Z,21.13
2023-01-22T15:27:42.198Z,20.40
2023-01-22T15:30:09.681Z,21.27
2023-01-22T15:32:36.901Z,21.52
2023-01-22T15:35:04.328Z,23.42
2023-01-22T15:37:31.526Z,22.42
2023-01-22T15:39:58.678Z,22.05
2023-01-22T15:42:25.889Z,21.42
2023-01-22T15:44:53.003Z,24.98
2023-01-22T15:47:20.179Z,22.17
2023-01-22T15:49:47.333Z,44.25
2023-01-22T15:52:14.452Z,27.77
2023-01-22T15:54:41.658Z,31.50
2023-01-22T15:57:08.804Z,28.98
2023-01-22T15:59:38.823Z,22.02
2023-01-22T16:02:05.999Z,22.63
2023-01-22T16:04:33.176Z,21.83
2023-01-22T16:07:00.344Z,25.42
2023-01-22T16:09:27.512Z,50.33
2023-01-22T16:11:54.736Z,61.65
2023-01-22T16:14:21.868Z,33.35
2023-01-22T16:16:49.153Z,26.33
2023-01-22T16:19:16.393Z,53.42
2023-01-22T16:21:45.059Z,36.08
2023-01-22T16:24:12.201Z,28.88
2023-01-22T16:26:39.358Z,31.35
2023-01-22T16:29:06.667Z,40.50
2023-01-22T16:31:35.141Z,31.38
2023-01-22T16:34:07.666Z,38.38
2023-01-22T16:36:34.774Z,89.83
2023-01-22T16:39:01.965Z,73.72
2023-01-22T16:41:30.329Z,42.97
2023-01-22T16:43:59.335Z,39.05
2023-01-22T16:46:27.914Z,61.33
2023-01-22T16:48:59.740Z,49.33
2023-01-22T16:51:27.912Z,32.20
2023-01-22T16:53:55.542Z,29.50
2023-01-22T16:56:22.732Z,32.28
2023-01-22T16:58:49.933Z,30.10
2023-01-22T17:01:17.240Z,31.20
2023-01-22T17:03:44.543Z,33.90
2023-01-22T17:06:19.890Z,36.85
2023-01-22T17:08:47.053Z,38.42
2023-01-22T17:11:17.770Z,32.28
2023-01-22T17:13:44.948Z,36.58
2023-01-22T17:16:12.586Z,34.33
2023-01-22T17:18:39.969Z,32.20
2023-01-22T17:21:08.054Z,32.22
2023-01-22T17:23:37.005Z,33.85
2023-01-22T17:26:08.138Z,32.83
2023-01-22T17:28:39.979Z,33.95
2023-01-22T17:31:11.979Z,35.08
2023-01-22T17:33:39.352Z,68.47
2023-01-22T17:36:07.258Z,81.55
2023-01-22T17:38:38.376Z,132.52
2023-01-22T17:41:07.629Z,120.53
2023-01-22T17:43:35.467Z,148.05
2023-01-22T17:46:03.045Z,66.40
2023-01-22T17:48:33.048Z,56.72
2023-01-22T17:51:04.228Z,54.63
2023-01-22T17:53:31.457Z,43.80
2023-01-22T17:56:12.606Z,48.95
2023-01-22T17:58:42.133Z,39.92
2023-01-22T18:01:10.169Z,39.85
2023-01-22T18:03:37.678Z,40.40
2023-01-22T18:06:05.226Z,37.17
2023-01-22T18:08:33.129Z,38.80
2023-01-22T18:11:00.456Z,41.25
2023-01-22T18:13:28.490Z,47.00
2023-01-22T18:15:55.644Z,47.53
2023-01-22T18:18:22.945Z,46.28
2023-01-22T18:20:50.183Z,38.47
2023-01-22T18:23:17.465Z,37.58
2023-01-22T18:25:47.319Z,39.38
2023-01-22T18:28:15.117Z,41.78
2023-01-22T18:30:42.379Z,38.80
2023-01-22T18:33:10.573Z,35.60
2023-01-22T18:35:38.172Z,36.53
2023-01-22T18:38:05.851Z,41.53
2023-01-22T18:40:32.999Z,34.97
2023-01-22T18:43:00.290Z,37.10
2023-01-22T18:45:27.447Z,33.80
2023-01-22T18:47:55.140Z,37.13
2023-01-22T18:50:22.581Z,35.92
2023-01-22T18:52:49.841Z,37.63
2023-01-22T18:55:17.637Z,34.53
2023-01-22T18:57:47.348Z,32.08
2023-01-22T19:00:15.540Z,40.28
2023-01-22T19:02:43.217Z,35.30
2023-01-22T19:05:10.891Z,33.80
2023-01-22T19:07:38.201Z,39.38
2023-01-22T19:10:08.776Z,39.15
2023-01-22T19:12:35.950Z,44.65
2023-01-22T19:15:03.123Z,49.67
2023-01-22T19:17:30.323Z,41.80
2023-01-22T19:19:57.455Z,35.60
2023-01-22T19:22:24.742Z,37.80
2023-01-22T19:24:51.936Z,39.47
2023-01-22T19:27:19.263Z,38.40
2023-01-22T19:29:46.976Z,36.30
2023-01-22T19:32:16.462Z,36.67
2023-01-22T19:34:43.915Z,35.38
2023-01-22T19:37:11.096Z,33.70
2023-01-22T19:39:40.325Z,31.90
2023-01-22T19:42:08.755Z,34.83
2023-01-22T19:44:36.139Z,33.65
2023-01-22T19:47:03.371Z,33.38
2023-01-22T19:49:30.582Z,31.85
2023-01-22T19:51:57.886Z,30.95
2023-01-22T19:54:25.345Z,29.23
2023-01-22T19:56:52.816Z,28.02
2023-01-22T19:59:21.401Z,34.80
2023-01-22T20:01:49.355Z,32.10
2023-01-22T20:04:23.923Z,32.72
2023-01-22T20:06:52.066Z,31.40
2023-01-22T20:09:21.692Z,31.63
2023-01-22T20:11:53.825Z,31.10
2023-01-22T20:14:26.139Z,27.73
2023-01-22T20:16:54.246Z,26.83
2023-01-22T20:19:21.387Z,30.13
2023-01-22T20:21:48.784Z,29.35
2023-01-22T20:24:16.610Z,27.17
2023-01-22T20:26:43.798Z,26.30
2023-01-22T20:29:12.682Z,28.83
2023-01-22T20:31:39.941Z,31.92
2023-01-22T20:34:07.306Z,31.20
2023-01-22T20:36:34.556Z,34.70
2023-01-22T20:39:02.194Z,37.78
2023-01-22T20:41:30.773Z,32.70
2023-01-22T20:43:58.545Z,29.48
2023-01-22T20:46:26.359Z,27.42
2023-01-22T20:48:53.971Z,26.80
2023-01-22T20:51:26.772Z,30.27
2023-01-22T20:53:54.864Z,27.25
2023-01-22T20:56:23.555Z,26.50
2023-01-22T20:58:55.805Z,26.05
2023-01-22T21:01:22.949Z,24.40
2023-01-22T21:03:50.176Z,26.13
2023-01-22T21:06:18.357Z,21.17
2023-01-22T21:08:48.722Z,25.45
2023-01-22T21:11:20.393Z,22.08
2023-01-22T21:13:48.613Z,20.30
2023-01-22T21:16:17.352Z,22.58
2023-01-22T21:18:46.212Z,27.30
2023-01-22T21:21:14.907Z,22.92
2023-01-22T21:23:43.328Z,21.70
2023-01-22T21:26:12.207Z,21.58
2023-01-22T21:28:39.952Z,25.40
2023-01-22T21:31:07.345Z,20.45
2023-01-22T21:33:34.733Z,22.75
2023-01-22T21:36:01.961Z,23.75
2023-01-22T21:38:29.473Z,30.70
2023-01-22T21:41:10.172Z,27.98
2023-01-22T21:43:56.190Z,25.50
2023-01-22T21:46:25.342Z,24.30
2023-01-22T21:49:01.215Z,21.77
2023-01-22T21:51:29.898Z,21.58
2023-01-22T21:53:57.682Z,24.33
2023-01-22T21:56:25.386Z,21.85
2023-01-22T21:58:52.516Z,22.98
2023-01-22T22:01:21.123Z,21.55
2023-01-22T22:03:48.333Z,21.83
2023-01-22T22:06:15.538Z,22.40
2023-01-22T22:08:43.661Z,17.90
2023-01-22T22:11:11.581Z,18.33
2023-01-22T22:13:38.963Z,19.13
2023-01-22T22:16:07.533Z,17.92
2023-01-22T22:18:35.849Z,17.38
2023-01-22T22:21:04.621Z,16.73
2023-01-22T22:23:32.196Z,17.90
2023-01-22T22:25:59.478Z,17.60
2023-01-22T22:28:26.964Z,18.80
2023-01-22T22:30:56.229Z,15.13
2023-01-22T22:33:23.436Z,17.00
2023-01-22T22:35:50.590Z,16.20
2023-01-22T22:38:17.705Z,15.05
2023-01-22T22:40:44.845Z,13.75
2023-01-22T22:43:12.194Z,14.60
2023-01-22T22:45:39.502Z,11.85
2023-01-22T22:48:07.714Z,13.57
2023-01-22T22:50:35.085Z,13.25
2023-01-22T22:53:02.407Z,12.07
2023-01-22T22:55:30.295Z,13.07
2023-01-22T22:57:59.506Z,12.77
2023-01-22T23:00:26.726Z,12.50
2023-01-22T23:02:53.948Z,12.85
2023-01-22T23:05:21.124Z,12.00
2023-01-22T23:07:48.269Z,11.68
2023-01-22T23:10:28.684Z,11.35
2023-01-22T23:12:57.396Z,11.55
2023-01-22T23:15:26.122Z,10.52
2023-01-22T23:17:53.950Z,12.80
2023-01-22T23:20:21.789Z,11.55
2023-01-22T23:22:51.094Z,11.00
2023-01-22T23:25:18.313Z,10.55
2023-01-22T23:27:45.615Z,11.20
2023-01-22T23:30:13.574Z,12.10
2023-01-22T23:32:40.964Z,10.95
2023-01-22T23:35:08.321Z,11.80
2023-01-22T23:37:35.712Z,13.05
2023-01-22T23:40:02.852Z,11.98
2023-01-22T23:42:30.059Z,14.23
2023-01-22T23:44:57.238Z,13.10
2023-01-22T23:47:27.266Z,12.32
2023-01-22T23:49:54.667Z,12.25
2023-01-22T23:52:21.954Z,12.88
2023-01-22T23:54:49.325Z,13.20
2023-01-22T23:57:16.748Z,14.90
2023-01-22T23:59:43.940Z,12.68
